Time;durP1;ratioP1;P1;durP2;ratioP2;P2;SDS_P1;SDS_P2;PMS_P1;PMS_P2;Temp;Humidity;BMP_temperature;BMP_pressure;BME280_temperature;BME280_humidity;BME280_pressure;Samples;Min_cycle;Max_cycle;Signal;HPM_P1;HPM_P2
2022/04/21 00:00:19;;;;;;;8.43;5.70;;;8.00;1.00;;;;;;7381506;19;20025;-62
2022/04/21 00:02:52;;;;;;;8.77;5.95;;;8.00;1.00;;;;;;7360943;19;20020;-61
2022/04/21 00:05:22;;;;;;;7.30;5.97;;;7.90;1.00;;;;;;7360105;19;20007;-62
2022/04/21 00:07:53;;;;;;;7.68;5.60;;;7.90;1.00;;;;;;7355837;19;20003;-62
2022/04/21 00:10:23;;;;;;;7.22;5.97;;;7.80;1.00;;;;;;7364867;19;20459;-62
2022/04/21 00:12:54;;;;;;;6.72;5.57;;;7.80;1.00;;;;;;7368150;19;20021;-62
2022/04/21 00:15:25;;;;;;;7.07;5.55;;;7.80;1.00;;;;;;7385779;19;20010;-62
2022/04/21 00:18:00;;;;;;;7.90;5.82;;;7.80;1.00;;;;;;7361891;19;20010;-61
2022/04/21 00:20:34;;;;;;;6.63;5.70;;;7.70;1.00;;;;;;7366643;19;20458;-63
2022/04/21 00:25:46;;;;;;;9.05;6.50;;;7.50;1.00;;;;;;7366537;19;20070;-61
2022/04/21 00:28:16;;;;;;;8.23;6.35;;;7.40;1.00;;;;;;7361547;19;20039;-61
2022/04/21 00:30:46;;;;;;;10.07;6.05;;;7.40;1.00;;;;;;7368681;19;20014;-61
2022/04/21 00:33:19;;;;;;;10.50;5.63;;;7.30;1.00;;;;;;7387539;19;20014;-61
2022/04/21 00:35:49;;;;;;;7.68;5.55;;;7.30;1.00;;;;;;7367594;19;20006;-62
2022/04/21 00:38:19;;;;;;;9.48;6.10;;;7.20;1.00;;;;;;7360844;19;20014;-62
2022/04/21 00:40:49;;;;;;;8.55;6.45;;;7.30;1.00;;;;;;7367415;19;20081;-61
2022/04/21 00:43:21;;;;;;;9.30;6.53;;;7.30;1.00;;;;;;7368157;19;20054;-62
2022/04/21 00:45:52;;;;;;;9.20;6.40;;;7.30;1.00;;;;;;7365253;19;20014;-61
2022/04/21 00:48:24;;;;;;;9.95;6.75;;;7.30;1.00;;;;;;7382411;19;20030;-62
2022/04/21 00:50:55;;;;;;;9.55;6.97;;;7.30;1.00;;;;;;7366751;19;20021;-62
2022/04/21 00:53:24;;;;;;;12.40;6.50;;;7.30;1.00;;;;;;7363794;19;20010;-62
2022/04/21 00:55:56;;;;;;;9.15;7.28;;;7.30;1.00;;;;;;7366229;19;20011;-61
2022/04/21 00:58:27;;;;;;;10.70;7.72;;;7.20;1.00;;;;;;7360747;19;20462;-62
2022/04/21 01:00:57;;;;;;;12.20;7.22;;;7.20;1.00;;;;;;7365656;19;20394;-62
2022/04/21 01:03:27;;;;;;;11.48;6.90;;;7.30;1.00;;;;;;7388097;19;20014;-62
2022/04/21 01:05:57;;;;;;;8.98;6.55;;;7.30;1.00;;;;;;7366336;19;20074;-61
2022/04/21 01:08:27;;;;;;;9.10;6.68;;;7.20;1.00;;;;;;7359088;19;20574;-61
2022/04/21 01:10:57;;;;;;;10.68;7.47;;;7.10;1.00;;;;;;7366572;19;20492;-62
2022/04/21 01:13:27;;;;;;;9.10;6.85;;;7.10;1.00;;;;;;7364542;19;20906;-62
2022/04/21 01:15:57;;;;;;;10.32;7.15;;;7.00;1.00;;;;;;7364332;19;20015;-62
2022/04/21 01:18:31;;;;;;;10.55;7.68;;;7.10;1.00;;;;;;7381449;19;20021;-61
2022/04/21 01:21:03;;;;;;;10.13;7.25;;;7.00;1.00;;;;;;7362994;19;20021;-62
2022/04/21 01:23:33;;;;;;;9.20;7.03;;;7.10;1.00;;;;;;7365163;19;20469;-62
2022/04/21 01:26:04;;;;;;;12.65;7.50;;;7.00;1.00;;;;;;7365164;19;20356;-61
2022/04/21 01:28:35;;;;;;;11.57;7.65;;;7.10;1.00;;;;;;7360141;19;20482;-62
2022/04/21 01:31:05;;;;;;;11.77;7.47;;;7.10;1.00;;;;;;7365538;19;20367;-62
2022/04/21 01:33:35;;;;;;;9.50;7.57;;;7.00;1.00;;;;;;7386766;19;20018;-62
2022/04/21 01:36:08;;;;;;;13.68;8.02;;;7.10;1.00;;;;;;7366492;19;20006;-62
2022/04/21 01:41:21;;;;;;;10.05;8.00;;;7.00;1.00;;;;;;7365975;19;20006;-63
2022/04/21 01:43:50;;;;;;;10.23;7.85;;;7.00;1.00;;;;;;7365526;19;20153;-62
2022/04/21 01:46:20;;;;;;;13.38;8.50;;;7.00;1.00;;;;;;7364786;19;20014;-62
2022/04/21 01:48:50;;;;;;;11.80;8.30;;;7.00;1.00;;;;;;7357783;19;20022;-62
2022/04/21 01:51:23;;;;;;;12.38;8.55;;;7.10;1.00;;;;;;7386893;19;20022;-62
2022/04/21 01:53:52;;;;;;;10.48;8.57;;;7.00;1.00;;;;;;7363343;19;20006;-62
2022/04/21 01:56:22;;;;;;;12.43;9.25;;;7.10;1.00;;;;;;7365546;19;20023;-62
2022/04/21 01:58:52;;;;;;;12.52;8.70;;;7.00;1.00;;;;;;7358133;19;20363;-62
2022/04/21 02:01:22;;;;;;;12.35;9.52;;;6.90;1.00;;;;;;7364440;19;20362;-62
2022/04/21 02:03:54;;;;;;;12.25;9.10;;;7.00;1.00;;;;;;7364578;19;20014;-62
2022/04/21 02:06:27;;;;;;;9.82;8.82;;;7.10;1.00;;;;;;7387915;19;20473;-62
2022/04/21 02:08:57;;;;;;;10.13;8.80;;;7.10;1.00;;;;;;7358102;19;20097;-63
2022/04/21 02:11:28;;;;;;;12.45;9.15;;;7.10;1.00;;;;;;7365413;19;20017;-62
2022/04/21 02:13:57;;;;;;;10.57;9.02;;;7.10;1.00;;;;;;7361793;19;20461;-61
2022/04/21 02:16:27;;;;;;;9.70;8.70;;;7.00;1.00;;;;;;7364259;19;20003;-62
2022/04/21 02:18:57;;;;;;;11.32;9.25;;;6.90;1.00;;;;;;7357155;19;20021;-62
2022/04/21 02:21:30;;;;;;;9.82;8.80;;;6.90;1.00;;;;;;7386540;19;20078;-63
2022/04/21 02:24:00;;;;;;;10.82;8.80;;;6.90;1.00;;;;;;7362442;19;20490;-62
2022/04/21 02:26:29;;;;;;;10.80;9.13;;;6.90;1.00;;;;;;7364361;19;20516;-62
2022/04/21 02:28:59;;;;;;;12.82;9.73;;;6.90;1.00;;;;;;7358024;19;20015;-62
2022/04/21 02:31:29;;;;;;;13.20;9.25;;;7.00;1.00;;;;;;7363982;19;20014;-62
2022/04/21 02:33:59;;;;;;;12.52;9.13;;;6.90;1.00;;;;;;7362263;19;20030;-62
2022/04/21 02:36:32;;;;;;;11.65;9.15;;;6.80;1.00;;;;;;7386407;19;20024;-63
2022/04/21 02:39:01;;;;;;;11.02;9.35;;;6.70;1.00;;;;;;7357930;19;20014;-63
2022/04/21 02:41:31;;;;;;;15.73;9.18;;;6.70;1.00;;;;;;7363889;19;20010;-63
2022/04/21 02:44:01;;;;;;;12.88;9.38;;;6.60;1.00;;;;;;7361267;19;20489;-63
2022/04/21 02:46:35;;;;;;;14.68;9.13;;;6.60;1.00;;;;;;7363734;19;20122;-63
2022/04/21 02:49:05;;;;;;;13.82;9.90;;;6.50;1.00;;;;;;7358748;19;20014;-63
2022/04/21 02:51:38;;;;;;;11.27;9.80;;;6.50;1.00;;;;;;7385397;19;20017;-63
2022/04/21 02:59:35;;;;;;;10.95;9.60;;;6.40;1.00;;;;;;7356268;19;20061;-63
2022/04/21 03:02:05;;;;;;;15.10;10.40;;;6.40;1.00;;;;;;7359230;19;20010;-62
2022/04/21 03:04:35;;;;;;;13.35;10.00;;;6.40;1.00;;;;;;7383995;19;20017;-62
2022/04/21 03:07:08;;;;;;;16.15;11.18;;;6.30;1.00;;;;;;7341727;19;20014;-63
2022/04/21 03:09:38;;;;;;;13.25;10.30;;;6.30;1.00;;;;;;7358690;19;20082;-63
2022/04/21 03:12:09;;;;;;;13.95;11.45;;;6.30;1.00;;;;;;7363791;19;20014;-63
2022/04/21 03:14:40;;;;;;;12.63;11.02;;;6.40;1.00;;;;;;7360164;19;20082;-62
2022/04/21 03:17:12;;;;;;;14.32;11.75;;;6.30;1.00;;;;;;7382856;19;20015;-62
2022/04/21 03:19:42;;;;;;;13.77;11.52;;;6.30;1.00;;;;;;7358520;19;20102;-63
2022/04/21 03:24:58;;;;;;;13.75;10.70;;;6.40;1.00;;;;;;7360287;19;20020;-62
2022/04/21 03:27:29;;;;;;;18.55;12.38;;;6.20;1.00;;;;;;7358950;19;20014;-61
2022/04/21 03:29:59;;;;;;;15.40;11.43;;;6.20;1.00;;;;;;7359613;19;20044;-62
2022/04/21 03:32:29;;;;;;;13.93;11.60;;;6.10;1.00;;;;;;7385099;19;20010;-63
2022/04/21 03:35:00;;;;;;;13.52;10.70;;;6.10;1.00;;;;;;7360538;19;20006;-62
2022/04/21 03:37:35;;;;;;;13.48;11.20;;;6.00;1.00;;;;;;7356409;19;20394;-63
2022/04/21 03:40:06;;;;;;;17.83;11.55;;;6.00;1.00;;;;;;7360000;19;20018;-62
2022/04/21 03:42:36;;;;;;;15.27;12.40;;;6.00;1.00;;;;;;7362901;19;20015;-62
2022/04/21 03:45:06;;;;;;;15.45;11.68;;;6.00;1.00;;;;;;7363928;19;20097;-63
2022/04/21 03:47:36;;;;;;;15.15;11.93;;;5.90;1.00;;;;;;7365277;19;20049;-61
2022/04/21 03:50:08;;;;;;;17.05;12.00;;;5.90;1.00;;;;;;7388475;19;20074;-62
2022/04/21 03:52:41;;;;;;;16.55;12.82;;;5.90;1.00;;;;;;7370038;19;20016;-63
2022/04/21 03:55:11;;;;;;;18.17;12.20;;;5.90;1.00;;;;;;7366948;19;20010;-60
2022/04/21 03:57:41;;;;;;;18.38;12.95;;;5.80;1.00;;;;;;7364806;19;20016;-62
2022/04/21 04:00:12;;;;;;;15.18;12.68;;;5.90;1.00;;;;;;7366214;19;20010;-62
2022/04/21 04:02:42;;;;;;;16.27;12.63;;;5.80;1.20;;;;;;7369575;19;20030;-62
2022/04/21 04:05:12;;;;;;;17.55;12.27;;;5.80;1.50;;;;;;7387674;19;20014;-62
2022/04/21 04:13:09;;;;;;;16.73;13.35;;;5.70;2.20;;;;;;7367586;19;20010;-61
2022/04/21 04:15:39;;;;;;;14.20;12.70;;;5.60;2.90;;;;;;7366384;19;20013;-62
2022/04/21 04:18:09;;;;;;;16.92;12.75;;;5.60;3.00;;;;;;7361691;19;20006;-62
2022/04/21 04:20:39;;;;;;;16.58;12.85;;;5.50;3.40;;;;;;7368553;19;20010;-61
2022/04/21 04:23:11;;;;;;;19.65;12.73;;;5.50;3.80;;;;;;7390228;19;20010;-61
2022/04/21 04:25:41;;;;;;;18.63;13.35;;;5.50;4.10;;;;;;7364741;19;20016;-63
2022/04/21 04:28:11;;;;;;;17.13;13.52;;;5.50;4.10;;;;;;7361395;19;20019;-62
2022/04/21 04:30:42;;;;;;;17.25;13.73;;;5.60;3.80;;;;;;7368402;19;21615;-62
2022/04/21 04:33:12;;;;;;;18.73;14.27;;;5.60;4.10;;;;;;7370097;19;20014;-62
2022/04/21 04:35:42;;;;;;;18.55;14.48;;;5.60;3.90;;;;;;7364554;19;20094;-62
2022/04/21 04:38:15;;;;;;;18.75;14.60;;;5.70;3.60;;;;;;7383013;19;20084;-62
2022/04/21 04:40:45;;;;;;;18.13;13.82;;;5.80;3.00;;;;;;7367627;19;20015;-62
2022/04/21 04:43:12;;;;;;;16.65;13.25;;;6.40;1.00;;;;;;7367936;19;20015;-62
2022/04/21 04:48:33;;;;;;;15.88;13.00;;;7.60;1.00;;;;;;7359376;19;20274;-61
2022/04/21 04:51:02;;;;;;;16.98;13.50;;;7.90;1.00;;;;;;7368015;19;20470;-61
2022/04/21 04:53:35;;;;;;;17.60;13.73;;;8.30;1.00;;;;;;7387784;19;20032;-64
2022/04/21 04:56:05;;;;;;;18.52;12.32;;;8.50;1.00;;;;;;7384004;19;20014;-62
2022/04/21 04:58:35;;;;;;;16.10;12.65;;;8.70;1.00;;;;;;7359500;19;20092;-61
2022/04/21 05:01:05;;;;;;;15.45;12.02;;;9.20;1.00;;;;;;7366508;19;20011;-63
2022/04/21 05:03:35;;;;;;;17.88;12.23;;;9.50;1.00;;;;;;7367442;19;20022;-62
2022/04/21 05:06:05;;;;;;;15.98;12.43;;;9.90;1.00;;;;;;7366105;19;20487;-62
2022/04/21 05:08:37;;;;;;;16.13;11.20;;;9.80;1.00;;;;;;7359922;19;20011;-62
2022/04/21 05:11:07;;;;;;;14.30;11.40;;;10.10;1.00;;;;;;7384746;19;20014;-62
2022/04/21 05:13:37;;;;;;;15.55;11.07;;;10.40;1.00;;;;;;7365012;19;20014;-63
2022/04/21 05:16:09;;;;;;;14.80;11.80;;;10.70;1.00;;;;;;7366210;19;20021;-62
2022/04/21 05:18:39;;;;;;;16.83;11.80;;;10.80;1.00;;;;;;7359722;19;20015;-62
2022/04/21 05:21:10;;;;;;;15.77;11.75;;;10.80;1.00;;;;;;7365379;19;20018;-62
2022/04/21 05:23:43;;;;;;;17.02;12.57;;;10.90;1.00;;;;;;7364572;19;20359;-63
2022/04/21 05:26:13;;;;;;;14.55;11.88;;;11.40;1.00;;;;;;7387984;19;20037;-62
2022/04/21 05:28:44;;;;;;;15.25;12.30;;;11.60;1.00;;;;;;7358840;19;20018;-63
2022/04/21 05:31:12;;;;;;;14.68;11.85;;;11.00;1.00;;;;;;7366546;19;20011;-63
2022/04/21 05:33:43;;;;;;;19.40;12.32;;;11.70;1.00;;;;;;7366754;19;20014;-63
2022/04/21 05:36:14;;;;;;;17.60;12.75;;;12.00;1.00;;;;;;7364791;19;20014;-63
2022/04/21 05:38:49;;;;;;;15.68;12.77;;;12.00;1.00;;;;;;7358872;19;20010;-63
2022/04/21 05:41:20;;;;;;;15.48;13.30;;;9.80;1.00;;;;;;7387547;19;20017;-63
2022/04/21 05:43:53;;;;;;;19.45;13.27;;;8.70;1.00;;;;;;7365012;19;20026;-61
2022/04/21 05:46:23;;;;;;;16.17;13.05;;;8.20;1.00;;;;;;7365671;19;20085;-63
2022/04/21 05:48:54;;;;;;;16.92;12.48;;;8.00;1.00;;;;;;7358107;19;20356;-63
2022/04/21 05:51:24;;;;;;;17.17;12.93;;;8.00;1.00;;;;;;7365112;19;20082;-62
2022/04/21 05:54:00;;;;;;;16.10;12.57;;;7.90;1.00;;;;;;7364946;19;20014;-63
2022/04/21 05:56:31;;;;;;;19.30;13.75;;;7.80;1.00;;;;;;7384628;19;20010;-62
2022/04/21 05:59:01;;;;;;;22.67;14.55;;;7.90;1.00;;;;;;7358697;19;20011;-62
2022/04/21 06:01:33;;;;;;;19.08;13.65;;;8.10;1.00;;;;;;7364377;19;20015;-62
2022/04/21 06:04:02;;;;;;;17.75;14.00;;;8.30;1.00;;;;;;7363716;19;20493;-62
2022/04/21 06:06:32;;;;;;;19.80;13.52;;;8.00;1.00;;;;;;7363093;19;20034;-63
2022/04/21 06:09:05;;;;;;;19.20;13.98;;;8.00;1.00;;;;;;7357200;19;20065;-62
2022/04/21 06:11:35;;;;;;;17.13;13.25;;;8.30;1.00;;;;;;7364663;19;20133;-62
2022/04/21 06:14:05;;;;;;;17.85;14.10;;;8.50;1.00;;;;;;7385082;19;20010;-62
2022/04/21 06:16:35;;;;;;;18.33;13.65;;;8.50;1.00;;;;;;7361967;19;20635;-62
2022/04/21 06:19:05;;;;;;;16.80;13.20;;;8.50;1.00;;;;;;7359385;19;20022;-62
2022/04/21 06:21:35;;;;;;;15.75;12.77;;;8.50;1.00;;;;;;7363965;19;20031;-63
2022/04/21 06:24:08;;;;;;;16.75;13.75;;;8.60;1.00;;;;;;7362413;19;20070;-63
2022/04/21 06:26:42;;;;;;;16.00;13.38;;;8.60;1.00;;;;;;7361611;19;20090;-63
2022/04/21 06:29:12;;;;;;;17.88;13.80;;;8.70;1.00;;;;;;7381422;19;20344;-61
2022/04/21 06:31:43;;;;;;;23.02;13.70;;;8.70;1.00;;;;;;7363579;19;20340;-62
2022/04/21 06:34:13;;;;;;;21.20;13.77;;;8.60;1.00;;;;;;7363467;19;20041;-62
2022/04/21 06:36:43;;;;;;;17.05;14.00;;;8.80;1.00;;;;;;7360041;19;20128;-61
2022/04/21 06:39:15;;;;;;;18.02;14.15;;;8.80;1.00;;;;;;7357806;19;20024;-61
2022/04/21 06:41:45;;;;;;;17.02;14.00;;;8.90;1.00;;;;;;7364395;19;20093;-61
2022/04/21 06:49:39;;;;;;;18.30;13.48;;;9.20;1.00;;;;;;7357332;19;20016;-63
2022/04/21 06:52:10;;;;;;;18.10;13.70;;;9.40;1.00;;;;;;7363729;19;20483;-63
2022/04/21 06:54:42;;;;;;;17.63;13.45;;;9.30;1.00;;;;;;7360760;19;20014;-63
2022/04/21 06:57:12;;;;;;;19.23;14.13;;;9.50;1.00;;;;;;7359172;19;20021;-63
2022/04/21 06:59:42;;;;;;;20.42;14.40;;;9.60;1.00;;;;;;7358682;19;20014;-62
2022/04/21 07:02:13;;;;;;;15.93;13.27;;;9.70;1.00;;;;;;7383767;19;20488;-62
2022/04/21 07:04:42;;;;;;;17.63;14.13;;;9.80;1.00;;;;;;7359411;19;20030;-63
2022/04/21 07:07:12;;;;;;;20.83;13.43;;;9.90;1.00;;;;;;7359095;19;20017;-62
2022/04/21 07:09:45;;;;;;;23.98;14.27;;;9.80;1.00;;;;;;7357705;19;20021;-62
2022/04/21 07:12:17;;;;;;;17.75;13.63;;;9.80;1.00;;;;;;7361902;19;20572;-63
2022/04/21 07:14:47;;;;;;;17.65;13.38;;;9.90;1.00;;;;;;7360577;19;20011;-63
2022/04/21 07:17:17;;;;;;;25.05;13.18;;;10.40;1.00;;;;;;7379532;19;20020;-62
2022/04/21 07:19:47;;;;;;;18.00;13.00;;;10.30;1.00;;;;;;7361301;19;20014;-63
2022/04/21 07:22:18;;;;;;;18.02;13.82;;;10.70;1.00;;;;;;7369115;19;20495;-63
2022/04/21 07:24:50;;;;;;;17.52;13.95;;;10.80;1.00;;;;;;7367711;19;20014;-62
2022/04/21 07:27:20;;;;;;;19.88;14.63;;;10.60;1.00;;;;;;7364855;19;20014;-62
2022/04/21 07:29:50;;;;;;;19.48;13.10;;;10.50;1.00;;;;;;7366701;19;20021;-63
2022/04/21 07:32:20;;;;;;;18.65;13.98;;;10.50;1.00;;;;;;7392406;19;20010;-63
2022/04/21 07:34:51;;;;;;;16.15;13.35;;;10.40;1.00;;;;;;7365698;19;20039;-62
2022/04/21 07:37:21;;;;;;;18.00;13.07;;;10.70;1.00;;;;;;7361807;19;20354;-62
2022/04/21 07:39:54;;;;;;;15.63;13.70;;;10.90;1.00;;;;;;7366005;19;20035;-64
2022/04/21 07:42:24;;;;;;;15.32;12.65;;;10.70;1.00;;;;;;7369644;19;20021;-64
2022/04/21 07:44:55;;;;;;;17.00;13.60;;;11.10;1.00;;;;;;7367685;19;20582;-63
2022/04/21 07:47:24;;;;;;;21.95;13.63;;;11.10;1.00;;;;;;7386326;19;20021;-62
2022/04/21 07:49:56;;;;;;;16.00;12.80;;;11.30;1.00;;;;;;7365981;19;20007;-63
2022/04/21 07:55:14;;;;;;;20.73;13.45;;;11.00;1.00;;;;;;7365293;19;20453;-63
2022/04/21 07:57:44;;;;;;;16.02;13.43;;;11.30;1.00;;;;;;7363187;19;20425;-62
2022/04/21 08:00:16;;;;;;;16.02;13.57;;;11.20;1.00;;;;;;7365822;19;20010;-62
2022/04/21 08:02:47;;;;;;;16.70;13.23;;;11.30;1.00;;;;;;7368080;19;20015;-62
2022/04/21 08:05:18;;;;;;;18.23;13.07;;;11.80;1.00;;;;;;7386784;19;20488;-63
2022/04/21 08:07:49;;;;;;;16.02;12.93;;;12.30;1.00;;;;;;7363090;19;20021;-63
2022/04/21 08:10:25;;;;;;;14.77;12.65;;;12.30;1.00;;;;;;7366264;19;20018;-63
2022/04/21 08:12:57;;;;;;;15.95;12.70;;;11.90;1.00;;;;;;7368752;19;20018;-62
2022/04/21 08:15:29;;;;;;;15.95;14.05;;;11.70;1.00;;;;;;7366415;19;20007;-62
2022/04/21 08:18:00;;;;;;;18.33;13.43;;;11.80;1.00;;;;;;7359389;19;20041;-64
2022/04/21 08:20:33;;;;;;;16.90;13.82;;;11.90;1.00;;;;;;7388211;19;20082;-63
2022/04/21 08:23:03;;;;;;;17.45;13.32;;;11.90;1.00;;;;;;7368387;19;20014;-63
2022/04/21 08:34:21;;;;;;;14.23;10.88;;;12.30;1.00;;;;;;7365581;19;20010;-63
2022/04/21 08:37:01;;;;;;;14.73;10.90;;;12.50;1.00;;;;;;7363345;19;20098;-64
2022/04/21 08:39:31;;;;;;;13.48;10.57;;;12.60;1.00;;;;;;7360872;19;20034;-63
2022/04/21 08:42:11;;;;;;;13.40;10.48;;;12.40;1.00;;;;;;7368029;19;20102;-62
2022/04/21 08:44:43;;;;;;;13.60;10.63;;;12.80;1.00;;;;;;7366543;19;20122;-63
2022/04/21 08:47:15;;;;;;;15.05;10.48;;;12.70;1.00;;;;;;7386275;19;20010;-63
2022/04/21 08:49:49;;;;;;;11.65;9.73;;;12.50;1.00;;;;;;7363413;19;20423;-63
2022/04/21 08:52:19;;;;;;;11.40;9.50;;;12.60;1.00;;;;;;7366851;19;20029;-62
2022/04/21 08:54:49;;;;;;;11.40;9.82;;;12.80;1.00;;;;;;7364660;19;20009;-62
2022/04/21 08:57:22;;;;;;;11.98;10.05;;;12.70;1.00;;;;;;7361626;19;20010;-63
2022/04/21 08:59:52;;;;;;;9.88;8.88;;;12.60;1.00;;;;;;7363372;19;20727;-63
2022/04/21 09:02:22;;;;;;;11.90;9.38;;;12.90;1.00;;;;;;7389187;19;20010;-63
2022/04/21 09:04:51;;;;;;;10.68;9.55;;;12.80;1.00;;;;;;7364547;19;20011;-62
2022/04/21 09:07:23;;;;;;;12.55;9.73;;;13.00;1.00;;;;;;7360064;19;20094;-63
2022/04/21 09:10:11;;;;;;;13.50;9.40;;;12.90;1.00;;;;;;7363363;19;20010;-61
2022/04/21 09:12:47;;;;;;;12.82;9.00;;;13.10;1.00;;;;;;7367391;19;20014;-62
2022/04/21 09:15:19;;;;;;;12.52;9.23;;;13.30;1.00;;;;;;7363378;19;20081;-64
2022/04/21 09:17:51;;;;;;;10.98;8.30;;;13.00;1.00;;;;;;7359417;19;20014;-63
2022/04/21 09:20:22;;;;;;;9.52;8.25;;;13.00;1.00;;;;;;7384625;19;20025;-63
2022/04/21 09:22:55;;;;;;;9.52;8.40;;;13.30;1.00;;;;;;7366359;19;20029;-63
2022/04/21 09:25:26;;;;;;;13.77;8.02;;;13.50;1.00;;;;;;7361858;19;20070;-62
2022/04/21 09:28:02;;;;;;;13.75;8.15;;;13.70;1.00;;;;;;7359943;19;20011;-63
2022/04/21 09:30:31;;;;;;;10.70;8.52;;;13.90;1.00;;;;;;7364783;19;20014;-63
2022/04/21 09:33:02;;;;;;;9.93;7.97;;;13.90;1.00;;;;;;7364836;19;20018;-63
2022/04/21 09:35:37;;;;;;;9.35;7.65;;;13.60;1.00;;;;;;7384587;19;20025;-62
2022/04/21 09:38:07;;;;;;;8.80;7.75;;;13.90;1.00;;;;;;7357536;19;20021;-62
2022/04/21 09:40:37;;;;;;;9.65;7.72;;;13.80;1.00;;;;;;7363573;19;20105;-62
2022/04/21 09:43:09;;;;;;;9.80;7.78;;;13.40;1.00;;;;;;7364740;19;20021;-62
2022/04/21 09:48:24;;;;;;;10.57;8.18;;;13.90;1.00;;;;;;7358508;19;20011;-62
2022/04/21 09:50:56;;;;;;;10.20;7.47;;;13.90;1.00;;;;;;7364075;19;20070;-63
2022/04/21 09:53:27;;;;;;;10.27;7.10;;;13.90;1.00;;;;;;7385964;19;20014;-63
2022/04/21 09:56:10;;;;;;;10.05;6.75;;;14.20;1.00;;;;;;7362466;19;20174;-62
2022/04/21 09:58:49;;;;;;;9.38;7.97;;;14.60;1.00;;;;;;7356608;19;20014;-62
2022/04/21 10:01:19;;;;;;;6.85;6.05;;;15.00;1.00;;;;;;7364161;19;20092;-62
2022/04/21 10:03:51;;;;;;;7.53;6.70;;;15.10;1.00;;;;;;7364779;19;20010;-62
2022/04/21 10:06:22;;;;;;;7.90;6.20;;;14.30;1.00;;;;;;7363376;19;20023;-63
2022/04/21 10:08:52;;;;;;;9.48;6.75;;;14.30;1.00;;;;;;7357327;19;20014;-63
2022/04/21 10:11:27;;;;;;;10.80;6.25;;;14.40;1.00;;;;;;7386952;19;20097;-62
2022/04/21 10:14:00;;;;;;;8.95;6.22;;;14.40;1.00;;;;;;7362892;19;20108;-63
2022/04/21 10:16:31;;;;;;;8.52;6.32;;;14.40;1.00;;;;;;7362944;19;20014;-62
2022/04/21 10:19:02;;;;;;;8.07;6.00;;;14.10;1.00;;;;;;7357084;19;20011;-64
2022/04/21 10:21:34;;;;;;;7.43;5.63;;;14.70;1.00;;;;;;7364040;19;20089;-63
2022/04/21 10:24:05;;;;;;;5.32;4.70;;;15.00;1.00;;;;;;7363218;19;20016;-62
2022/04/21 10:26:40;;;;;;;5.88;5.18;;;15.00;1.00;;;;;;7363623;19;20025;-63
2022/04/21 10:29:17;;;;;;;5.55;4.57;;;15.30;1.00;;;;;;7381447;19;20015;-63
2022/04/21 10:31:49;;;;;;;5.00;4.50;;;15.70;1.00;;;;;;7362982;19;20337;-62
2022/04/21 10:34:35;;;;;;;5.45;4.30;;;15.10;1.00;;;;;;7362124;19;20010;-62
2022/04/21 10:37:14;;;;;;;5.05;4.05;;;15.10;1.00;;;;;;7358471;19;20006;-62
2022/04/21 10:40:06;;;;;;;4.32;3.60;;;15.20;1.00;;;;;;7358456;19;20014;-63
2022/04/21 10:42:57;;;;;;;4.60;3.92;;;15.00;1.00;;;;;;7362995;19;20018;-62
2022/04/21 10:45:32;;;;;;;4.78;3.42;;;15.10;1.00;;;;;;7362069;19;20016;-62
2022/04/21 10:48:06;;;;;;;4.38;3.80;;;15.30;1.00;;;;;;7353145;19;20018;-63
2022/04/21 10:50:37;;;;;;;4.00;3.35;;;15.50;1.00;;;;;;7362181;19;20011;-63
2022/04/21 10:58:53;;;;;;;5.47;3.40;;;14.80;1.00;;;;;;7353677;19;20028;-64
2022/04/21 11:01:34;;;;;;;4.88;3.25;;;15.40;1.00;;;;;;7361608;19;20886;-63
2022/04/21 11:04:22;;;;;;;7.35;3.22;;;15.70;1.00;;;;;;7361922;19;20025;-63
2022/04/21 11:07:12;;;;;;;4.47;3.00;;;15.60;1.00;;;;;;7358667;19;20014;-63
2022/04/21 11:09:46;;;;;;;5.93;3.03;;;15.80;1.00;;;;;;7358403;19;20031;-62
2022/04/21 11:12:49;;;;;;;2.80;2.47;;;15.90;1.00;;;;;;7360573;19;20071;-63
2022/04/21 11:15:34;;;;;;;3.38;2.97;;;16.00;1.00;;;;;;7360486;19;20021;-63
2022/04/21 11:18:10;;;;;;;3.58;3.20;;;15.70;1.00;;;;;;7354904;19;20024;-63
2022/04/21 11:20:42;;;;;;;4.13;2.88;;;15.40;1.00;;;;;;7361076;19;20025;-63
2022/04/21 11:23:12;;;;;;;3.60;3.13;;;15.80;1.00;;;;;;7384270;19;20023;-63
2022/04/21 11:25:47;;;;;;;3.92;3.20;;;15.80;1.00;;;;;;7358704;19;20038;-63
2022/04/21 11:28:26;;;;;;;5.65;3.42;;;16.10;1.00;;;;;;7354985;19;20069;-63
2022/04/21 11:30:58;;;;;;;3.97;2.88;;;16.30;1.00;;;;;;7361336;19;20014;-62
2022/04/21 11:33:31;;;;;;;2.67;2.40;;;16.40;1.00;;;;;;7361791;19;20023;-63
2022/04/21 11:36:05;;;;;;;3.53;2.65;;;16.40;1.00;;;;;;7361760;19;20137;-63
2022/04/21 11:38:35;;;;;;;2.40;2.20;;;16.10;1.00;;;;;;7353508;19;20506;-63
2022/04/21 11:41:07;;;;;;;3.85;2.53;;;15.80;1.00;;;;;;7382976;19;20517;-63
2022/04/21 11:43:38;;;;;;;3.15;2.40;;;16.00;1.00;;;;;;7359168;19;20010;-62
2022/04/21 11:46:11;;;;;;;3.13;2.53;;;16.30;1.00;;;;;;7360622;19;20450;-63
2022/04/21 11:48:44;;;;;;;3.22;2.70;;;16.60;1.00;;;;;;7353870;19;20137;-62
2022/04/21 11:51:24;;;;;;;3.08;2.65;;;16.50;1.00;;;;;;7359593;19;20494;-63
2022/04/21 11:53:56;;;;;;;2.72;2.40;;;16.30;1.00;;;;;;7359654;19;20022;-64
2022/04/21 11:56:27;;;;;;;3.15;2.85;;;16.10;1.00;;;;;;7382242;19;20081;-64
2022/04/21 11:58:57;;;;;;;5.85;2.85;;;16.20;1.00;;;;;;7353953;19;20474;-63
2022/04/21 12:06:56;;;;;;;3.75;2.92;;;16.60;1.00;;;;;;7362856;19;20025;-62
2022/04/21 12:09:28;;;;;;;3.33;3.03;;;16.10;1.00;;;;;;7363527;19;20362;-62
2022/04/21 12:12:00;;;;;;;3.35;2.50;;;16.70;1.00;;;;;;7366976;19;20015;-61
2022/04/21 12:14:32;;;;;;;3.10;2.72;;;17.10;1.00;;;;;;7388249;19;20015;-61
2022/04/21 12:17:02;;;;;;;3.50;2.70;;;16.80;1.00;;;;;;7365012;19;20086;-62
2022/04/21 12:19:38;;;;;;;3.67;2.60;;;16.50;1.00;;;;;;7362255;19;20014;-63
2022/04/21 12:22:11;;;;;;;2.67;2.20;;;16.80;1.00;;;;;;7367663;19;20018;-64
2022/04/21 12:24:43;;;;;;;3.58;2.65;;;16.70;1.00;;;;;;7365671;19;20020;-62
2022/04/21 12:27:17;;;;;;;2.40;2.20;;;16.80;1.00;;;;;;7364439;19;20335;-61
2022/04/21 12:29:49;;;;;;;3.83;2.13;;;16.60;1.00;;;;;;7365092;19;20362;-62
2022/04/21 12:32:20;;;;;;;2.55;2.20;;;16.90;1.00;;;;;;7389231;19;20081;-63
2022/04/21 12:34:55;;;;;;;3.20;2.08;;;17.00;1.00;;;;;;7366098;19;20006;-63
2022/04/21 12:37:30;;;;;;;3.22;2.13;;;17.20;1.00;;;;;;7360805;19;20544;-62
2022/04/21 12:40:02;;;;;;;3.15;2.05;;;17.70;1.00;;;;;;7361752;19;20010;-62
2022/04/21 12:42:50;;;;;;;5.18;2.80;;;17.20;1.00;;;;;;7366875;19;20010;-64
2022/04/21 12:45:20;;;;;;;3.60;2.55;;;16.80;1.00;;;;;;7365210;19;20133;-62
2022/04/21 12:47:51;;;;;;;3.28;2.53;;;16.50;1.00;;;;;;7360137;19;20082;-62
2022/04/21 12:50:24;;;;;;;3.13;2.75;;;16.90;1.00;;;;;;7386939;19;20573;-64
2022/04/21 12:52:56;;;;;;;5.60;3.50;;;17.20;1.00;;;;;;7366950;19;20026;-62
2022/04/21 12:55:32;;;;;;;6.38;3.25;;;16.80;1.00;;;;;;7364290;19;20738;-63
2022/04/21 12:58:09;;;;;;;5.15;3.13;;;16.70;1.00;;;;;;7358472;19;20017;-63
2022/04/21 13:00:41;;;;;;;5.30;3.67;;;17.10;1.00;;;;;;7365500;19;20010;-62
2022/04/21 13:03:14;;;;;;;7.60;3.40;;;17.00;1.00;;;;;;7367505;19;20030;-64
2022/04/21 13:05:50;;;;;;;4.32;3.10;;;17.10;1.00;;;;;;7363288;19;20025;-64
2022/04/21 13:08:21;;;;;;;3.97;3.08;;;16.90;1.00;;;;;;7378541;19;20040;-62
2022/04/21 13:10:52;;;;;;;6.57;4.10;;;17.40;1.00;;;;;;7365859;19;20014;-62
2022/04/21 13:13:22;;;;;;;4.63;3.67;;;16.70;1.00;;;;;;7366113;19;20106;-61
2022/04/21 13:15:52;;;;;;;4.82;3.47;;;16.70;1.00;;;;;;7365512;19;20016;-61
2022/04/21 13:18:22;;;;;;;3.72;3.28;;;17.00;1.00;;;;;;7355823;19;20006;-62
2022/04/21 13:23:37;;;;;;;3.30;3.00;;;17.50;1.00;;;;;;7365813;19;20455;-62
2022/04/21 13:26:07;;;;;;;3.72;3.28;;;17.80;1.00;;;;;;7386831;19;20466;-62
2022/04/21 13:28:58;;;;;;;8.20;3.30;;;17.50;1.00;;;;;;7357692;19;20006;-62
2022/04/21 13:34:11;;;;;;;5.13;3.45;;;17.00;1.00;;;;;;7364333;19;20006;-63
2022/04/21 13:36:44;;;;;;;4.40;3.63;;;17.40;1.00;;;;;;7360006;19;20010;-63
2022/04/21 13:39:15;;;;;;;6.13;4.47;;;17.20;1.00;;;;;;7357640;19;20014;-63
2022/04/21 13:41:46;;;;;;;5.68;3.95;;;16.60;1.00;;;;;;7364495;19;20557;-62
2022/04/21 13:44:16;;;;;;;5.05;3.72;;;16.90;1.00;;;;;;7385332;19;20022;-61
2022/04/21 13:47:07;;;;;;;6.32;3.80;;;16.50;1.00;;;;;;7359121;19;20046;-61
2022/04/21 13:49:38;;;;;;;5.28;3.45;;;16.80;1.00;;;;;;7359682;19;20021;-63
2022/04/21 13:52:11;;;;;;;7.75;5.50;;;16.70;1.00;;;;;;7364401;19;20753;-62
2022/04/21 13:54:41;;;;;;;6.43;3.78;;;16.80;1.00;;;;;;7363273;19;20504;-63
2022/04/21 13:57:11;;;;;;;5.90;3.67;;;16.90;1.00;;;;;;7360869;19;20017;-63
2022/04/21 13:59:41;;;;;;;5.38;4.18;;;16.90;1.00;;;;;;7360096;19;20053;-63
2022/04/21 14:02:11;;;;;;;5.38;3.63;;;17.20;1.00;;;;;;7385248;19;20002;-62
2022/04/21 14:04:40;;;;;;;5.22;3.83;;;17.40;1.00;;;;;;7363528;19;20021;-62
2022/04/21 14:07:13;;;;;;;6.78;3.83;;;17.50;1.00;;;;;;7359460;19;20006;-63
2022/04/21 14:09:43;;;;;;;6.22;4.07;;;17.10;1.00;;;;;;7360102;19;20114;-63
2022/04/21 14:12:13;;;;;;;4.63;3.83;;;16.70;1.00;;;;;;7364640;19;20014;-62
2022/04/21 14:14:43;;;;;;;5.78;3.40;;;16.90;1.00;;;;;;7363393;19;20085;-63